Time;durP1;ratioP1;P1;durP2;ratioP2;P2;SDS_P1;SDS_P2;PMS_P1;PMS_P2;Temp;Humidity;BMP_temperature;BMP_pressure;BME280_temperature;BME280_humidity;BME280_pressure;Samples;Min_cycle;Max_cycle;Signal;HPM_P1;HPM_P2
2022/11/30 00:02:01;;;;;;;0.30;0.00;;;;;;;6.19;100.00;102066.66;5236890;28;20029;-66
2022/11/30 00:04:32;;;;;;;0.30;0.10;;;;;;;6.19;100.00;102069.28;5237033;28;20033;-66
2022/11/30 00:07:03;;;;;;;0.00;0.00;;;;;;;6.18;100.00;102071.09;5235905;28;20036;-66
2022/11/30 00:09:35;;;;;;;0.10;0.00;;;;;;;6.21;100.00;102073.63;5235206;28;20042;-66
2022/11/30 00:12:06;;;;;;;0.30;0.00;;;;;;;6.21;100.00;102080.69;5235052;28;20083;-65
2022/11/30 00:14:38;;;;;;;0.13;0.00;;;;;;;6.21;100.00;102072.75;5246166;28;20040;-66
2022/11/30 00:17:09;;;;;;;0.03;0.00;;;;;;;6.21;100.00;102064.81;5231403;28;20040;-66
2022/11/30 00:19:40;;;;;;;0.00;0.00;;;;;;;6.22;100.00;102070.03;5237212;28;20033;-66
2022/11/30 00:22:11;;;;;;;0.20;0.00;;;;;;;6.21;100.00;102076.28;5230008;28;20063;-66
2022/11/30 00:24:43;;;;;;;0.08;0.00;;;;;;;6.21;100.00;102076.28;5231607;28;20029;-66
2022/11/30 00:27:14;;;;;;;0.00;0.00;;;;;;;6.22;100.00;102075.34;5242141;28;20037;-66
2022/11/30 00:29:45;;;;;;;0.10;0.00;;;;;;;6.25;100.00;102074.34;5228537;28;20033;-66
2022/11/30 00:32:16;;;;;;;0.00;0.00;;;;;;;6.26;100.00;102073.44;5237275;28;20095;-66
2022/11/30 00:34:48;;;;;;;1.17;0.10;;;;;;;6.26;100.00;102070.78;5236573;28;20071;-66
2022/11/30 00:37:20;;;;;;;0.00;0.00;;;;;;;6.26;100.00;102070.78;5239815;28;20100;-66
2022/11/30 00:39:51;;;;;;;0.85;0.10;;;;;;;6.27;100.00;102075.16;5239083;28;20025;-66
2022/11/30 00:42:22;;;;;;;0.00;0.00;;;;;;;6.26;100.00;102071.66;5245662;28;20513;-66
2022/11/30 00:44:54;;;;;;;0.10;0.00;;;;;;;6.25;100.00;102069.94;5235169;28;20033;-66
2022/11/30 00:47:25;;;;;;;0.32;0.00;;;;;;;6.24;100.00;102073.50;5233163;28;20034;-66
2022/11/30 00:49:56;;;;;;;0.10;0.00;;;;;;;6.26;100.00;102084.03;5242055;28;20025;-65
2022/11/30 00:52:29;;;;;;;0.43;0.00;;;;;;;6.26;100.00;102090.19;5241208;28;20057;-66
2022/11/30 00:55:00;;;;;;;0.00;0.00;;;;;;;6.25;100.00;102088.50;5240550;28;20045;-67
2022/11/30 00:57:31;;;;;;;0.03;0.00;;;;;;;6.25;100.00;102082.31;5237453;28;20086;-66
2022/11/30 01:00:03;;;;;;;0.13;0.00;;;;;;;6.24;100.00;102083.25;5237139;28;20036;-66
2022/11/30 01:02:34;;;;;;;0.20;0.00;;;;;;;6.25;100.00;102091.16;5234393;28;20033;-66
2022/11/30 01:05:05;;;;;;;0.35;0.00;;;;;;;6.25;100.00;102088.50;5234754;28;20079;-66
2022/11/30 01:07:37;;;;;;;0.22;0.00;;;;;;;6.26;100.00;102092.00;5230654;28;20072;-66
2022/11/30 01:10:08;;;;;;;0.13;0.00;;;;;;;6.26;100.00;102086.69;5229965;28;20029;-66
2022/11/30 01:12:39;;;;;;;0.25;0.00;;;;;;;6.27;100.00;102093.72;5233107;28;20034;-66
2022/11/30 01:15:11;;;;;;;0.68;0.00;;;;;;;6.27;100.00;102091.06;5231069;28;20305;-66
2022/11/30 01:17:42;;;;;;;0.40;0.05;;;;;;;6.26;100.00;102087.56;5231050;28;20060;-67
2022/11/30 01:20:13;;;;;;;1.02;0.00;;;;;;;6.27;100.00;102083.09;5236095;28;20111;-66
2022/11/30 01:22:45;;;;;;;0.30;0.00;;;;;;;6.28;100.00;102087.50;5239395;28;20057;-66
2022/11/30 01:25:16;;;;;;;0.00;0.00;;;;;;;6.29;100.00;102081.28;5230125;28;20037;-66
2022/11/30 01:27:48;;;;;;;0.35;0.00;;;;;;;6.29;100.00;102091.91;5231282;28;20090;-66
2022/11/30 01:30:19;;;;;;;0.08;0.00;;;;;;;6.30;100.00;102090.09;5228120;28;20029;-66
2022/11/30 01:32:50;;;;;;;0.82;0.00;;;;;;;6.30;100.00;102098.91;5233002;28;20052;-66
2022/11/30 01:35:21;;;;;;;0.03;0.00;;;;;;;6.30;100.00;102090.09;5233218;28;20382;-66
2022/11/30 01:37:53;;;;;;;0.20;0.00;;;;;;;6.29;100.00;102083.94;5237620;28;20487;-68
2022/11/30 01:40:24;;;;;;;0.25;0.00;;;;;;;6.28;100.00;102087.50;5234473;28;20026;-66
2022/11/30 01:42:55;;;;;;;0.00;0.00;;;;;;;6.29;100.00;102089.25;5241006;28;20061;-66
2022/11/30 01:45:27;;;;;;;2.15;0.00;;;;;;;6.28;100.00;102092.81;5232118;28;20028;-66
2022/11/30 01:47:58;;;;;;;0.32;0.10;;;;;;;6.27;100.00;102091.06;5229613;28;20431;-66
2022/11/30 01:50:33;;;;;;;0.52;0.00;;;;;;;6.27;100.00;102093.72;5228586;28;20082;-66
2022/11/30 01:53:08;;;;;;;0.45;0.00;;;;;;;6.29;100.00;102094.53;5232413;28;20460;-66
2022/11/30 01:55:43;;;;;;;0.13;0.00;;;;;;;6.28;100.00;102104.25;5232950;28;20585;-66
2022/11/30 01:58:24;;;;;;;0.45;0.00;;;;;;;6.29;100.00;102110.44;5233841;28;20064;-66
2022/11/30 02:00:56;;;;;;;0.08;0.00;;;;;;;6.28;100.00;102108.69;5233359;28;20083;-67
2022/11/30 02:03:45;;;;;;;0.08;0.00;;;;;;;6.28;100.00;102114.00;5237747;28;20029;-66
2022/11/30 02:06:17;;;;;;;0.10;0.00;;;;;;;6.28;100.00;102106.91;5226854;28;20041;-65
2022/11/30 02:08:48;;;;;;;0.70;0.15;;;;;;;6.26;100.00;102110.56;5232149;28;20025;-66
2022/11/30 02:11:20;;;;;;;0.00;0.00;;;;;;;6.25;100.00;102111.47;5232641;28;20037;-66
2022/11/30 02:14:04;;;;;;;0.15;0.00;;;;;;;6.25;100.00;102115.00;5237093;28;20492;-66
2022/11/30 02:16:45;;;;;;;0.30;0.00;;;;;;;6.26;100.00;102114.06;5232070;28;20112;-66
2022/11/30 02:19:55;;;;;;;0.15;0.00;;;;;;;6.26;100.00;102106.09;5230955;28;20040;-66
2022/11/30 02:22:37;;;;;;;0.00;0.00;;;;;;;6.27;100.00;102112.25;5226031;28;20050;-66
2022/11/30 02:25:38;;;;;;;0.17;0.10;;;;;;;6.26;100.00;102105.25;5235672;28;20224;-66
2022/11/30 02:28:15;;;;;;;0.17;0.00;;;;;;;6.27;100.00;102114.91;5229607;28;20045;-66
2022/11/30 02:30:49;;;;;;;0.08;0.00;;;;;;;6.27;100.00;102112.25;5236527;28;20123;-66
2022/11/30 02:33:26;;;;;;;0.00;0.00;;;;;;;6.29;100.00;102118.41;5234145;28;20088;-66
2022/11/30 02:35:59;;;;;;;0.00;0.00;;;;;;;6.30;100.00;102112.16;5230915;28;20176;-67
2022/11/30 02:38:30;;;;;;;0.10;0.00;;;;;;;6.33;100.00;102111.16;5231179;28;20905;-66
2022/11/30 02:41:02;;;;;;;0.08;0.00;;;;;;;6.34;100.00;102100.50;5229952;28;20120;-67
2022/11/30 02:43:34;;;;;;;0.40;0.10;;;;;;;6.34;100.00;102116.41;5228097;28;20038;-66
2022/11/30 02:46:13;;;;;;;0.28;0.00;;;;;;;6.35;100.00;102118.16;5229705;28;20076;-66
2022/11/30 02:48:52;;;;;;;0.55;0.10;;;;;;;6.38;100.00;102122.47;5232717;28;20399;-64
2022/11/30 02:51:26;;;;;;;0.00;0.00;;;;;;;6.38;100.00;102123.31;5230677;28;20059;-65
2022/11/30 02:53:57;;;;;;;0.00;0.00;;;;;;;6.38;100.00;102122.47;5234300;28;20041;-65
2022/11/30 02:56:30;;;;;;;0.25;0.08;;;;;;;6.37;100.00;102126.91;5229456;28;20402;-64
2022/11/30 02:59:01;;;;;;;0.00;0.00;;;;;;;6.36;100.00;102116.38;5231261;28;20029;-64
2022/11/30 03:01:32;;;;;;;0.20;0.00;;;;;;;6.36;100.00;102124.31;5228630;28;20513;-64
2022/11/30 03:04:03;;;;;;;0.43;0.00;;;;;;;6.35;100.00;102122.56;5236497;28;21518;-65
2022/11/30 03:06:35;;;;;;;0.10;0.00;;;;;;;6.32;100.00;102115.63;5230808;28;20486;-64
2022/11/30 03:09:06;;;;;;;0.25;0.00;;;;;;;6.32;100.00;102126.22;5232619;28;20021;-65
2022/11/30 03:11:38;;;;;;;0.63;0.00;;;;;;;6.30;100.00;102114.81;5233896;28;20029;-65
2022/11/30 03:14:09;;;;;;;0.00;0.00;;;;;;;6.30;100.00;102119.25;5238781;28;20347;-65
2022/11/30 03:16:40;;;;;;;0.13;0.00;;;;;;;6.33;100.00;102116.47;5230484;28;20041;-65
2022/11/30 03:19:13;;;;;;;0.05;0.00;;;;;;;6.34;100.00;102120.84;5239020;28;20033;-65
2022/11/30 03:21:44;;;;;;;0.00;0.00;;;;;;;6.33;100.00;102119.13;5229442;28;20444;-65
2022/11/30 03:24:15;;;;;;;0.00;0.00;;;;;;;6.30;100.00;102120.09;5233756;28;20125;-64
2022/11/30 03:26:46;;;;;;;0.30;0.00;;;;;;;6.30;100.00;102117.47;5233182;28;20030;-65
2022/11/30 03:29:18;;;;;;;0.40;0.00;;;;;;;6.32;100.00;102123.56;5230951;28;20029;-64
2022/11/30 03:31:49;;;;;;;0.57;0.00;;;;;;;6.35;100.00;102115.50;5227748;28;20037;-64
2022/11/30 03:34:21;;;;;;;0.00;0.00;;;;;;;6.33;100.00;102120.00;5232605;28;20041;-64
2022/11/30 03:36:53;;;;;;;0.00;0.00;;;;;;;6.30;100.00;102125.41;5227676;28;20082;-64
2022/11/30 03:39:24;;;;;;;0.10;0.00;;;;;;;6.30;100.00;102119.25;5231929;28;20030;-64
2022/11/30 03:41:55;;;;;;;0.20;0.00;;;;;;;6.30;100.00;102124.56;5232897;28;20037;-64
2022/11/30 03:44:28;;;;;;;0.15;0.00;;;;;;;6.28;100.00;102125.47;5230001;28;20586;-65
2022/11/30 03:47:00;;;;;;;0.00;0.00;;;;;;;6.30;100.00;102119.25;5229596;28;20021;-64
2022/11/30 03:49:31;;;;;;;0.17;0.00;;;;;;;6.33;100.00;102121.78;5231039;28;20029;-64
2022/11/30 03:52:02;;;;;;;0.00;0.00;;;;;;;6.33;100.00;102117.34;5227772;28;20021;-64
2022/11/30 03:54:33;;;;;;;1.10;0.00;;;;;;;6.32;100.00;102122.72;5227038;28;20041;-64
2022/11/30 03:57:05;;;;;;;0.00;0.00;;;;;;;6.28;100.00;102133.41;5233571;28;20061;-64
2022/11/30 03:59:36;;;;;;;0.13;0.00;;;;;;;6.25;100.00;102120.28;5231892;28;20070;-64
2022/11/30 04:02:07;;;;;;;0.35;0.00;;;;;;;6.24;100.00;102128.31;5232424;28;20025;-65
2022/11/30 04:04:38;;;;;;;0.10;0.00;;;;;;;6.26;100.00;102129.97;5232609;28;20038;-65
2022/11/30 04:07:10;;;;;;;0.28;0.08;;;;;;;6.28;100.00;102125.47;5230310;28;20120;-64
2022/11/30 04:09:41;;;;;;;0.00;0.00;;;;;;;6.32;100.00;102125.34;5230400;28;20033;-64
2022/11/30 04:12:12;;;;;;;0.10;0.00;;;;;;;6.37;100.00;102118.97;5233410;28;20025;-64
2022/11/30 04:14:43;;;;;;;0.00;0.00;;;;;;;6.39;100.00;102125.06;5230248;28;20041;-64
2022/11/30 04:17:15;;;;;;;0.10;0.00;;;;;;;6.42;100.00;102121.41;5231412;28;20051;-64
2022/11/30 04:19:46;;;;;;;0.90;0.00;;;;;;;6.43;100.00;102126.66;5228802;28;20119;-64
2022/11/30 04:22:17;;;;;;;0.10;0.00;;;;;;;6.37;100.00;102126.06;5236228;28;20048;-64
2022/11/30 04:24:48;;;;;;;0.00;0.00;;;;;;;6.35;100.00;102130.53;5232289;28;20040;-65
2022/11/30 04:27:20;;;;;;;0.50;0.00;;;;;;;6.33;100.00;102129.72;5229541;28;20067;-64
2022/11/30 04:29:51;;;;;;;0.00;0.00;;;;;;;6.32;100.00;102120.91;5223008;28;20037;-65
2022/11/30 04:32:22;;;;;;;0.32;0.00;;;;;;;6.31;100.00;102129.81;5238956;28;20136;-64
2022/11/30 04:34:53;;;;;;;0.45;0.00;;;;;;;6.32;100.00;102133.31;5233251;28;20033;-64
2022/11/30 04:37:25;;;;;;;0.00;0.00;;;;;;;6.30;100.00;102125.41;5233261;28;20476;-65
2022/11/30 04:39:56;;;;;;;0.20;0.00;;;;;;;6.25;100.00;102137.97;5226971;28;20041;-64
2022/11/30 04:42:27;;;;;;;0.00;0.00;;;;;;;6.22;100.00;102136.31;5237439;28;20079;-64
2022/11/30 04:44:59;;;;;;;0.10;0.00;;;;;;;6.19;100.00;102136.41;5237918;28;20483;-64
2022/11/30 04:47:30;;;;;;;0.00;0.00;;;;;;;6.17;100.00;102130.28;5236258;28;20033;-64
2022/11/30 04:50:03;;;;;;;0.08;0.00;;;;;;;6.14;100.00;102142.81;5229099;28;20086;-64
2022/11/30 04:52:35;;;;;;;0.30;0.00;;;;;;;6.11;100.00;102141.13;5233786;28;20531;-64
2022/11/30 04:55:07;;;;;;;0.15;0.00;;;;;;;6.10;100.00;102139.41;5232390;28;20450;-64
2022/11/30 04:57:38;;;;;;;0.30;0.05;;;;;;;6.08;100.00;102141.25;5234332;28;20498;-64
2022/11/30 05:00:10;;;;;;;0.45;0.00;;;;;;;6.11;100.00;102145.56;5233946;28;20029;-64
2022/11/30 05:02:42;;;;;;;0.00;0.00;;;;;;;6.09;100.00;102141.19;5219502;28;20090;-64
2022/11/30 05:05:13;;;;;;;0.05;0.00;;;;;;;6.11;100.00;102135.84;5236097;28;20029;-64
2022/11/30 05:07:48;;;;;;;0.22;0.00;;;;;;;6.07;100.00;102132.44;5231837;28;20159;-64
2022/11/30 05:10:20;;;;;;;0.00;0.00;;;;;;;6.06;100.00;102132.50;5229857;28;20134;-64
2022/11/30 05:12:52;;;;;;;0.43;0.10;;;;;;;6.02;100.00;102134.41;5236530;28;20454;-64
2022/11/30 05:15:24;;;;;;;0.00;0.00;;;;;;;5.99;100.00;102149.53;5233074;28;20112;-64
2022/11/30 05:18:00;;;;;;;0.22;0.00;;;;;;;5.95;100.00;102140.84;5237096;28;20623;-64
2022/11/30 05:20:31;;;;;;;0.00;0.00;;;;;;;5.95;100.00;102139.94;5234506;28;20035;-64
2022/11/30 05:23:02;;;;;;;0.00;0.00;;;;;;;5.94;100.00;102143.50;5231474;28;20496;-64
2022/11/30 05:25:33;;;;;;;0.03;0.00;;;;;;;5.94;100.00;102138.19;5237102;28;20483;-64
2022/11/30 05:28:05;;;;;;;0.10;0.00;;;;;;;5.97;100.00;102149.59;5233338;28;20107;-64
2022/11/30 05:30:40;;;;;;;0.52;0.10;;;;;;;5.96;100.00;102147.84;5236697;28;20041;-64
2022/11/30 05:33:12;;;;;;;0.05;0.00;;;;;;;6.00;100.00;102145.97;5233855;28;20075;-64
2022/11/30 05:35:43;;;;;;;0.10;0.00;;;;;;;5.98;100.00;102145.16;5233587;28;20021;-64
2022/11/30 05:38:14;;;;;;;0.68;0.20;;;;;;;5.96;100.00;102147.84;5233973;28;20399;-64
2022/11/30 05:40:46;;;;;;;0.10;0.00;;;;;;;5.98;100.00;102151.31;5234735;28;20048;-64
2022/11/30 05:43:17;;;;;;;0.10;0.00;;;;;;;5.98;100.00;102153.94;5234827;28;20037;-64
2022/11/30 05:45:48;;;;;;;0.03;0.00;;;;;;;5.98;100.00;102156.59;5263389;28;20044;-64
2022/11/30 05:48:20;;;;;;;0.00;0.00;;;;;;;5.96;100.00;102153.16;5233519;28;20040;-66
2022/11/30 05:50:51;;;;;;;1.13;0.08;;;;;;;5.97;100.00;102160.19;5233725;28;20030;-64
2022/11/30 05:53:22;;;;;;;0.10;0.00;;;;;;;5.95;100.00;102167.31;5233990;28;20029;-64
2022/11/30 05:55:54;;;;;;;0.10;0.00;;;;;;;5.90;100.00;102163.94;5232716;28;20121;-64
2022/11/30 05:58:25;;;;;;;0.00;0.00;;;;;;;5.84;100.00;102169.47;5234275;28;20025;-64
2022/11/30 06:00:56;;;;;;;0.10;0.03;;;;;;;5.83;100.00;102163.31;5235807;28;20483;-64
2022/11/30 06:03:28;;;;;;;0.17;0.00;;;;;;;5.86;100.00;102178.22;5238170;28;20502;-64
2022/11/30 06:06:00;;;;;;;0.52;0.25;;;;;;;5.87;100.00;102174.66;5230848;28;20399;-64
2022/11/30 06:08:32;;;;;;;0.20;0.00;;;;;;;5.87;100.00;102174.66;5233639;28;20033;-64
2022/11/30 06:11:03;;;;;;;0.30;0.00;;;;;;;5.82;100.00;102182.75;5236762;28;20029;-64
2022/11/30 06:13:34;;;;;;;0.25;0.00;;;;;;;5.81;100.00;102180.16;5233886;28;20032;-64
2022/11/30 06:16:06;;;;;;;0.00;0.00;;;;;;;5.80;100.00;102181.09;5236352;28;20254;-65
2022/11/30 06:18:37;;;;;;;0.00;0.00;;;;;;;5.84;100.00;102180.06;5234547;28;20030;-64
2022/11/30 06:21:11;;;;;;;0.17;0.00;;;;;;;5.84;100.00;102175.63;5231814;28;20029;-64
2022/11/30 06:23:42;;;;;;;0.00;0.00;;;;;;;5.88;100.00;102171.94;5232765;28;20428;-64
2022/11/30 06:26:13;;;;;;;0.05;0.00;;;;;;;5.86;100.00;102179.06;5236931;28;20541;-64
2022/11/30 06:28:45;;;;;;;0.00;0.00;;;;;;;5.85;100.00;102184.44;5231652;28;20036;-64
2022/11/30 06:31:16;;;;;;;0.00;0.00;;;;;;;5.84;100.00;102182.69;5236268;28;20048;-64
2022/11/30 06:33:48;;;;;;;0.30;0.10;;;;;;;5.81;100.00;102190.75;5219344;28;20025;-64
2022/11/30 06:36:21;;;;;;;0.13;0.00;;;;;;;5.84;100.00;102188.84;5244270;28;20025;-64
2022/11/30 06:38:53;;;;;;;0.10;0.00;;;;;;;5.88;100.00;102186.97;5232949;28;20095;-64
2022/11/30 06:41:25;;;;;;;0.30;0.00;;;;;;;5.92;100.00;102191.22;5233741;28;20044;-64
2022/11/30 06:43:56;;;;;;;0.00;0.00;;;;;;;5.91;100.00;102184.22;5227605;28;20041;-64
2022/11/30 06:46:27;;;;;;;0.52;0.10;;;;;;;5.92;100.00;102183.28;5229801;28;20037;-64
2022/11/30 06:48:59;;;;;;;0.63;0.05;;;;;;;5.93;100.00;102181.53;5236019;28;20029;-64
2022/11/30 06:51:32;;;;;;;0.40;0.00;;;;;;;5.93;100.00;102186.81;5235867;28;20060;-64
2022/11/30 06:54:04;;;;;;;0.10;0.00;;;;;;;5.92;100.00;102188.59;5235582;28;20033;-64
2022/11/30 06:56:35;;;;;;;0.10;0.00;;;;;;;5.91;100.00;102192.16;5226095;28;20074;-64
2022/11/30 06:59:07;;;;;;;0.00;0.00;;;;;;;5.89;100.00;102196.66;5229911;28;20033;-64
2022/11/30 07:01:38;;;;;;;0.43;0.10;;;;;;;5.88;100.00;102197.56;5231896;28;20106;-64
2022/11/30 07:04:09;;;;;;;0.40;0.10;;;;;;;5.87;100.00;102203.78;5232160;28;20110;-64
2022/11/30 07:06:42;;;;;;;0.22;0.00;;;;;;;5.86;100.00;102205.56;5229953;28;20025;-64
2022/11/30 07:09:13;;;;;;;0.05;0.00;;;;;;;5.88;100.00;102202.84;5231585;28;20017;-65
2022/11/30 07:11:45;;;;;;;0.25;0.00;;;;;;;5.88;100.00;102202.84;5230240;28;20475;-64
2022/11/30 07:14:16;;;;;;;0.00;0.00;;;;;;;5.89;100.00;102207.25;5229654;28;20341;-64
2022/11/30 07:16:48;;;;;;;0.20;0.00;;;;;;;5.85;100.00;102202.97;5230625;28;20022;-65
2022/11/30 07:19:19;;;;;;;0.17;0.00;;;;;;;5.84;100.00;102206.53;5232362;28;20659;-64
2022/11/30 07:21:50;;;;;;;0.40;0.00;;;;;;;5.82;100.00;102208.38;5233446;28;20025;-64
2022/11/30 07:27:11;;;;;;;0.40;0.10;;;;;;;5.78;100.00;102220.00;5229776;28;20124;-64
2022/11/30 07:29:43;;;;;;;0.08;0.00;;;;;;;5.76;100.00;102228.00;5230441;28;20038;-64
2022/11/30 07:32:14;;;;;;;0.00;0.00;;;;;;;5.74;100.00;102227.19;5227024;28;20431;-64
2022/11/30 07:34:45;;;;;;;0.10;0.00;;;;;;;5.73;100.00;102228.09;5237418;28;20025;-64
2022/11/30 07:37:16;;;;;;;0.00;0.00;;;;;;;5.73;100.00;102227.22;5236697;28;20033;-65
2022/11/30 07:39:48;;;;;;;0.60;0.00;;;;;;;5.70;100.00;102237.00;5235421;28;20033;-65
2022/11/30 07:42:19;;;;;;;0.00;0.00;;;;;;;5.70;100.00;102230.84;5233628;28;20049;-64
2022/11/30 07:44:51;;;;;;;0.20;0.00;;;;;;;5.68;100.00;102233.53;5230831;28;20037;-64
2022/11/30 07:47:22;;;;;;;0.08;0.00;;;;;;;5.68;100.00;102248.56;5243768;28;20059;-64
2022/11/30 07:49:53;;;;;;;0.00;0.00;;;;;;;5.67;100.00;102245.03;5236299;28;20128;-64
2022/11/30 07:52:24;;;;;;;0.00;0.00;;;;;;;5.68;100.00;102246.78;5230448;28;20030;-64
2022/11/30 07:54:56;;;;;;;0.00;0.00;;;;;;;5.69;100.00;102243.25;5238705;28;20053;-64
2022/11/30 07:57:27;;;;;;;0.00;0.00;;;;;;;5.68;100.00;102254.72;5225578;28;20710;-64
2022/11/30 07:59:58;;;;;;;0.10;0.00;;;;;;;5.68;100.00;102245.94;5247308;28;20483;-64
2022/11/30 08:02:29;;;;;;;0.17;0.00;;;;;;;5.68;100.00;102240.63;5231524;28;20447;-64
2022/11/30 08:05:01;;;;;;;0.10;0.00;;;;;;;5.67;100.00;102247.69;5237726;28;20485;-67
2022/11/30 08:07:32;;;;;;;0.10;0.00;;;;;;;5.68;100.00;102254.72;5231342;28;20053;-65
2022/11/30 08:10:04;;;;;;;0.00;0.00;;;;;;;5.68;100.00;102260.03;5233784;28;20146;-64
2022/11/30 08:12:36;;;;;;;0.22;0.00;;;;;;;5.71;100.00;102248.44;5241399;28;20178;-64
2022/11/30 08:15:08;;;;;;;0.30;0.10;;;;;;;5.71;100.00;102261.69;5223805;28;20033;-64
2022/11/30 08:17:39;;;;;;;0.20;0.00;;;;;;;5.72;100.00;102262.59;5236817;28;20395;-64
2022/11/30 08:20:10;;;;;;;0.00;0.00;;;;;;;5.72;100.00;102267.88;5237169;28;20080;-64
2022/11/30 08:22:42;;;;;;;0.08;0.00;;;;;;;5.69;100.00;102261.78;5234859;28;20487;-64
2022/11/30 08:25:13;;;;;;;0.03;0.00;;;;;;;5.67;100.00;102268.88;5231701;28;20032;-64
2022/11/30 08:27:45;;;;;;;0.45;0.17;;;;;;;5.66;100.00;102269.81;5234969;28;20044;-64
2022/11/30 08:30:16;;;;;;;0.40;0.10;;;;;;;5.65;100.00;102269.84;5236852;28;20029;-64
2022/11/30 08:32:47;;;;;;;0.00;0.00;;;;;;;5.65;100.00;102269.84;5230887;28;20037;-64
2022/11/30 08:35:19;;;;;;;0.17;0.00;;;;;;;5.66;100.00;102272.44;5234568;28;20106;-64
2022/11/30 08:37:50;;;;;;;0.45;0.00;;;;;;;5.67;100.00;102270.66;5234241;28;20373;-64
2022/11/30 08:40:21;;;;;;;0.17;0.00;;;;;;;5.67;100.00;102276.81;5233154;28;20586;-64
2022/11/30 08:42:52;;;;;;;0.28;0.00;;;;;;;5.69;100.00;102277.66;5230380;28;20033;-64
2022/11/30 08:45:24;;;;;;;1.08;0.08;;;;;;;5.69;100.00;102285.59;5229054;28;20364;-64
2022/11/30 08:47:56;;;;;;;0.13;0.00;;;;;;;5.68;100.00;102283.84;5231553;28;20468;-64
2022/11/30 08:50:27;;;;;;;0.10;0.00;;;;;;;5.67;100.00;102284.75;5236692;28;20026;-64
2022/11/30 08:52:58;;;;;;;0.47;0.00;;;;;;;5.65;100.00;102286.59;5238742;28;20034;-64
2022/11/30 08:55:29;;;;;;;0.40;0.03;;;;;;;5.64;100.00;102289.31;5236072;28;20385;-64
2022/11/30 08:58:01;;;;;;;0.10;0.00;;;;;;;5.64;100.00;102284.88;5227202;28;20696;-64
2022/11/30 09:00:32;;;;;;;0.00;0.00;;;;;;;5.67;100.00;102283.91;5230800;28;20068;-64
2022/11/30 09:03:03;;;;;;;0.25;0.00;;;;;;;5.68;100.00;102283.00;5229645;28;20033;-64
2022/11/30 09:05:34;;;;;;;0.00;0.00;;;;;;;5.72;100.00;102286.41;5232357;28;20041;-64
2022/11/30 09:08:06;;;;;;;0.10;0.00;;;;;;;5.75;100.00;102288.94;5233908;28;20039;-64
2022/11/30 09:10:37;;;;;;;0.00;0.00;;;;;;;5.75;100.00;102294.25;5231446;28;20072;-64
2022/11/30 09:13:08;;;;;;;0.10;0.00;;;;;;;5.76;100.00;102293.34;5236274;28;20037;-64
2022/11/30 09:15:41;;;;;;;0.00;0.00;;;;;;;5.77;100.00;102303.00;5236587;28;20033;-65
2022/11/30 09:18:13;;;;;;;0.22;0.00;;;;;;;5.77;100.00;102300.34;5224088;28;20022;-65
2022/11/30 09:20:44;;;;;;;0.10;0.00;;;;;;;5.80;100.00;102303.78;5229092;28;20033;-65
2022/11/30 09:23:16;;;;;;;0.15;0.00;;;;;;;5.82;100.00;102303.72;5227512;28;20033;-65
2022/11/30 09:25:54;;;;;;;0.00;0.00;;;;;;;5.86;100.00;102303.56;5226943;28;20108;-64
2022/11/30 09:28:25;;;;;;;0.00;0.00;;;;;;;5.92;100.00;102310.44;5223835;28;20173;-65
2022/11/30 09:31:15;;;;;;;0.00;0.00;;;;;;;5.95;100.00;102313.03;5232845;28;20029;-65
2022/11/30 09:33:47;;;;;;;0.00;0.00;;;;;;;5.98;100.00;102309.41;5231319;28;20038;-65
2022/11/30 09:36:20;;;;;;;0.08;0.00;;;;;;;6.00;100.00;102308.44;5234156;28;20033;-64
2022/11/30 09:38:53;;;;;;;0.00;0.00;;;;;;;6.05;100.00;102311.78;5228217;28;20029;-65
2022/11/30 09:41:27;;;;;;;0.35;0.00;;;;;;;6.07;100.00;102307.31;5235734;28;20348;-65
2022/11/30 09:44:07;;;;;;;0.10;0.00;;;;;;;6.09;100.00;102324.00;5238907;28;20047;-65
2022/11/30 09:46:42;;;;;;;0.17;0.00;;;;;;;6.11;100.00;102320.47;5234526;28;20047;-65
2022/11/30 09:49:28;;;;;;;0.10;0.00;;;;;;;6.09;100.00;102321.38;5235235;28;20109;-65
2022/11/30 09:52:04;;;;;;;0.00;0.00;;;;;;;6.09;100.00;102316.06;5229234;28;20025;-65
2022/11/30 09:54:38;;;;;;;0.20;0.00;;;;;;;6.08;100.00;102310.84;5226781;28;20135;-65
2022/11/30 09:57:16;;;;;;;0.63;0.00;;;;;;;6.08;100.00;102316.13;5236981;28;20026;-64
2022/11/30 10:00:01;;;;;;;0.10;0.00;;;;;;;6.08;100.00;102317.00;5234643;28;20076;-65
2022/11/30 10:02:39;;;;;;;0.25;0.00;;;;;;;6.08;100.00;102314.34;5228428;28;20038;-65
2022/11/30 10:05:12;;;;;;;2.55;0.10;;;;;;;6.09;100.00;102310.75;5231929;28;20124;-65
2022/11/30 10:07:55;;;;;;;0.00;0.00;;;;;;;6.11;100.00;102320.47;5233338;28;20052;-64
2022/11/30 10:10:43;;;;;;;0.55;0.10;;;;;;;6.11;100.00;102315.16;5230108;28;20855;-65
2022/11/30 10:13:29;;;;;;;0.22;0.00;;;;;;;6.13;100.00;102315.97;5233439;28;20057;-64
2022/11/30 10:16:32;;;;;;;0.20;0.00;;;;;;;6.13;100.00;102310.66;5234855;28;20498;-65
2022/11/30 10:19:21;;;;;;;0.32;0.03;;;;;;;6.14;100.00;102305.31;5229232;28;20033;-65
2022/11/30 10:22:09;;;;;;;0.77;0.00;;;;;;;6.17;100.00;102304.34;5227794;28;20045;-65
2022/11/30 10:25:13;;;;;;;0.10;0.00;;;;;;;6.21;100.00;102306.84;5230724;28;20032;-65
2022/11/30 10:27:50;;;;;;;0.00;0.00;;;;;;;6.22;100.00;102308.56;5233413;28;20017;-65
2022/11/30 10:30:24;;;;;;;0.05;0.00;;;;;;;6.23;100.00;102305.00;5235440;28;20060;-65
2022/11/30 10:33:04;;;;;;;0.60;0.00;;;;;;;6.27;100.00;102306.63;5229601;28;20025;-65
2022/11/30 10:35:46;;;;;;;0.15;0.00;;;;;;;6.31;100.00;102296.78;5228215;28;20055;-65
2022/11/30 10:38:26;;;;;;;0.32;0.00;;;;;;;6.37;100.00;102296.56;5219997;28;20043;-64
2022/11/30 10:41:12;;;;;;;0.08;0.00;;;;;;;6.39;100.00;102297.38;5227490;28;20057;-64
2022/11/30 10:43:50;;;;;;;0.30;0.00;;;;;;;6.43;100.00;102293.69;5234511;28;20036;-65
2022/11/30 10:46:27;;;;;;;0.00;0.00;;;;;;;6.48;100.00;102297.06;5222350;28;20164;-65
2022/11/30 10:49:09;;;;;;;0.95;0.00;;;;;;;6.52;100.00;102288.97;5223783;28;20041;-64
2022/11/30 10:51:43;;;;;;;0.10;0.00;;;;;;;6.58;100.00;102291.44;5239599;28;20071;-65
2022/11/30 10:54:18;;;;;;;0.30;0.00;;;;;;;6.65;100.00;102293.78;5230142;28;20050;-65
2022/11/30 10:56:49;;;;;;;0.00;0.00;;;;;;;6.73;100.00;102285.56;5235333;28;20483;-65
2022/11/30 10:59:26;;;;;;;0.28;0.00;;;;;;;6.82;100.00;102287.84;5232847;28;20025;-65
2022/11/30 11:01:57;;;;;;;0.10;0.00;;;;;;;6.90;100.00;102274.28;5239094;28;20418;-65
2022/11/30 11:04:29;;;;;;;0.15;0.00;;;;;;;6.97;100.00;102274.94;5228408;28;20037;-65
2022/11/30 11:07:08;;;;;;;0.43;0.10;;;;;;;7.04;100.00;102276.44;5224487;28;20056;-65
2022/11/30 11:09:45;;;;;;;0.00;0.00;;;;;;;7.09;100.00;102277.09;5224685;28;20026;-65
2022/11/30 11:12:20;;;;;;;0.30;0.00;;;;;;;7.14;100.00;102277.78;5228426;28;20033;-65
2022/11/30 11:15:16;;;;;;;0.40;0.20;;;;;;;7.19;100.00;102273.19;5229732;28;20083;-65
2022/11/30 11:17:48;;;;;;;0.13;0.00;;;;;;;7.23;100.00;102276.59;5226970;28;20029;-65
2022/11/30 11:20:34;;;;;;;0.20;0.00;;;;;;;7.28;100.00;102276.38;5231884;28;20032;-65
2022/11/30 11:23:18;;;;;;;0.10;0.00;;;;;;;7.28;100.00;102271.94;5227067;28;20025;-65
2022/11/30 11:25:52;;;;;;;0.90;0.00;;;;;;;7.30;100.00;102270.06;5238430;28;20055;-65
2022/11/30 11:28:24;;;;;;;1.13;0.10;;;;;;;7.28;100.00;102271.06;5231560;28;20072;-65
2022/11/30 11:30:56;;;;;;;0.10;0.00;;;;;;;7.25;100.00;102259.66;5232112;28;20840;-65
2022/11/30 11:33:28;;;;;;;0.98;0.10;;;;;;;7.24;100.00;102275.63;5233384;28;20033;-65
2022/11/30 11:36:26;;;;;;;0.55;0.10;;;;;;;7.20;100.00;102269.59;5228778;28;20051;-65
2022/11/30 11:38:59;;;;;;;0.38;0.10;;;;;;;7.19;100.00;102270.53;5229292;28;20013;-65
2022/11/30 11:41:33;;;;;;;0.25;0.00;;;;;;;7.21;100.00;102278.41;5231622;28;20070;-65
2022/11/30 11:44:04;;;;;;;;;;;;;;;7.20;100.00;102263.41;5230030;28;20072;-65
2022/11/30 11:46:57;;;;;;;0.40;0.05;;;;;;;7.21;100.00;102271.31;5233300;28;20028;-65
2022/11/30 11:49:33;;;;;;;0.35;0.10;;;;;;;7.21;100.00;102273.09;5230573;28;20299;-65
2022/11/30 11:52:14;;;;;;;0.43;0.10;;;;;;;7.20;100.00;102276.69;5231296;28;20822;-66
2022/11/30 11:54:54;;;;;;;0.25;0.05;;;;;;;7.23;100.00;102273.94;5232757;28;20053;-65
2022/11/30 11:57:40;;;;;;;0.57;0.10;;;;;;;7.21;100.00;102278.41;5229715;28;20033;-65